Tyrone, New York
Current Conditions -  °F | °C
As of 5:21 PM on Tuesday 21 Oct 2014 (Local Time) from KPEO Reporting Station
Light Rain Light Rain  
Wind Chill: 11°   Ceiling: 1600
Heat Index: 11°   Visibility: 3mi
Dew Point: 10°   Wind: 0mph
Humidity: 93%   Direction: NA
Pressure: 29.9"   Gusts: NA
Location:  42.41°N, 77.06°W
Report Text: KPEO 212121Z AUTO 00000KT 3SM -RA BR SCT009 BKN016 OVC022 11/10 A2990 RMK AO2 P0004 T01110100
Loading
Personal Weather Stations






























Interactive Weather Map
Tropical Storm Tracking
New forecast layout! Learn more

10-Day Weather Forecast

Advertisements
Track Severe Weather on mobile